OMA408 OOMS-HECA
Flight info
| Callsign | OMA408 |
|---|---|
| Flight time | 4h 0m |
| Altitude | 34000 |
| Route | MCT N718 ITRAX P899 ROVOS G462 UKUVO Q563 IMGUX N563 ALPOB L768 VATIM L550 NOVPA N697 MENLI L677 CVO |
| Aircraft | A332/H-SDE3GHIJ2J3J5M1RVWXY/LB2D1 |
Departure
| Time | 2026-05-05 09:56 |
|---|---|
| Airport | Muscat International Airport (OOMS) |
Arrival
| Time | 2026-05-05 13:56 |
|---|---|
| Airport | Cairo International Airport (HECA) |
| Time | Latitude | Longitude | Altitude | Speed | Heading |
|---|---|---|---|---|---|
| 2026-05-05 09:31 | 23.60202 | 58.28563 | 47 ft | 0 kts | 130° |
| 2026-05-05 09:45 | 23.60202 | 58.28562 | 49 ft | 2 kts | 130° |
| 2026-05-05 09:45 | 23.60211 | 58.28550 | 46 ft | 2 kts | 130° |
| 2026-05-05 09:45 | 23.60220 | 58.28539 | 45 ft | 2 kts | 130° |
| 2026-05-05 09:46 | 23.60230 | 58.28527 | 45 ft | 3 kts | 130° |
| 2026-05-05 09:46 | 23.60241 | 58.28512 | 43 ft | 3 kts | 130° |
| 2026-05-05 09:46 | 23.60253 | 58.28497 | 47 ft | 3 kts | 130° |
| 2026-05-05 09:46 | 23.60264 | 58.28482 | 45 ft | 3 kts | 130° |
| 2026-05-05 09:47 | 23.60277 | 58.28468 | 45 ft | 3 kts | 144° |
| 2026-05-05 09:47 | 23.60299 | 58.28456 | 44 ft | 3 kts | 174° |
| 2026-05-05 09:47 | 23.60323 | 58.28454 | 48 ft | 3 kts | 174° |
| 2026-05-05 09:47 | 23.60336 | 58.28452 | 43 ft | 0 kts | 174° |
| 2026-05-05 09:48 | 23.60326 | 58.28453 | 44 ft | 5 kts | 174° |
| 2026-05-05 09:48 | 23.60283 | 58.28436 | 47 ft | 8 kts | 233° |
| 2026-05-05 09:49 | 23.60264 | 58.28350 | 48 ft | 16 kts | 266° |
| 2026-05-05 09:49 | 23.60252 | 58.28202 | 48 ft | 23 kts | 266° |
| 2026-05-05 09:49 | 23.60238 | 58.28019 | 48 ft | 27 kts | 265° |
| 2026-05-05 09:49 | 23.60287 | 58.27833 | 48 ft | 28 kts | 311° |
| 2026-05-05 09:50 | 23.60420 | 58.27662 | 48 ft | 31 kts | 310° |
| 2026-05-05 09:50 | 23.60465 | 58.27487 | 48 ft | 26 kts | 264° |
| 2026-05-05 09:50 | 23.60437 | 58.27302 | 47 ft | 15 kts | 229° |
| 2026-05-05 09:50 | 23.60324 | 58.27303 | 47 ft | 20 kts | 172° |
| 2026-05-05 09:51 | 23.60168 | 58.27308 | 48 ft | 25 kts | 180° |
| 2026-05-05 09:51 | 23.59983 | 58.27331 | 48 ft | 28 kts | 164° |
| 2026-05-05 09:51 | 23.59789 | 58.27355 | 48 ft | 29 kts | 175° |
| 2026-05-05 09:51 | 23.59588 | 58.27374 | 48 ft | 25 kts | 175° |
| 2026-05-05 09:52 | 23.59516 | 58.27323 | 48 ft | 13 kts | 266° |
| 2026-05-05 09:52 | 23.59502 | 58.27196 | 48 ft | 21 kts | 263° |
| 2026-05-05 09:52 | 23.59486 | 58.27013 | 48 ft | 27 kts | 265° |
| 2026-05-05 09:52 | 23.59470 | 58.26788 | 48 ft | 27 kts | 265° |
| 2026-05-05 09:53 | 23.59411 | 58.26669 | 48 ft | 15 kts | 178° |
| 2026-05-05 09:53 | 23.59317 | 58.26683 | 48 ft | 12 kts | 174° |
| 2026-05-05 09:53 | 23.59230 | 58.26693 | 48 ft | 13 kts | 174° |
| 2026-05-05 09:53 | 23.59173 | 58.26747 | 48 ft | 11 kts | 92° |
| 2026-05-05 09:54 | 23.59174 | 58.26771 | 48 ft | 0 kts | 85° |
| 2026-05-05 09:55 | 23.59181 | 58.26856 | 48 ft | 36 kts | 85° |
| 2026-05-05 09:55 | 23.59224 | 58.27385 | 47 ft | 102 kts | 85° |
| 2026-05-05 09:55 | 23.59306 | 58.28382 | 49 ft | 160 kts | 86° |
| 2026-05-05 09:56 | 23.59380 | 58.29644 | 708 ft | 166 kts | 82° |
| 2026-05-05 09:56 | 23.59461 | 58.30914 | 1576 ft | 169 kts | 85° |
| 2026-05-05 09:56 | 23.59540 | 58.32244 | 2183 ft | 187 kts | 84° |
| 2026-05-05 09:56 | 23.59662 | 58.33739 | 2607 ft | 208 kts | 84° |
| 2026-05-05 09:57 | 23.59837 | 58.35388 | 3040 ft | 229 kts | 83° |
| 2026-05-05 09:57 | 23.60187 | 58.37175 | 3403 ft | 253 kts | 69° |
| 2026-05-05 09:57 | 23.61180 | 58.38784 | 4110 ft | 261 kts | 44° |
| 2026-05-05 09:57 | 23.62811 | 58.39681 | 4876 ft | 271 kts | 10° |
| 2026-05-05 09:58 | 23.64666 | 58.39407 | 5490 ft | 281 kts | 333° |
| 2026-05-05 09:58 | 23.66065 | 58.37963 | 6185 ft | 283 kts | 295° |
| 2026-05-05 09:58 | 23.66423 | 58.35898 | 6886 ft | 279 kts | 259° |
| 2026-05-05 09:58 | 23.65691 | 58.33968 | 7647 ft | 277 kts | 232° |
| 2026-05-05 09:59 | 23.64551 | 58.32262 | 8478 ft | 280 kts | 230° |
| 2026-05-05 09:59 | 23.63298 | 58.30621 | 9292 ft | 283 kts | 226° |
| 2026-05-05 09:59 | 23.61924 | 58.29059 | 10105 ft | 287 kts | 222° |
| 2026-05-05 09:59 | 23.60480 | 58.27524 | 10903 ft | 292 kts | 226° |
| 2026-05-05 10:00 | 23.59365 | 58.25633 | 11561 ft | 305 kts | 248° |
| 2026-05-05 10:00 | 23.58968 | 58.23310 | 12100 ft | 321 kts | 265° |
| 2026-05-05 10:00 | 23.58883 | 58.21669 | 12381 ft | 333 kts | 267° |
| 2026-05-05 10:00 | 23.58848 | 58.19084 | 12807 ft | 349 kts | 271° |
| 2026-05-05 10:01 | 23.58898 | 58.16375 | 13231 ft | 364 kts | 272° |
| 2026-05-05 10:01 | 23.59020 | 58.12621 | 13705 ft | 383 kts | 273° |
| 2026-05-05 10:01 | 23.59079 | 58.10640 | 14014 ft | 388 kts | 272° |
| 2026-05-05 10:01 | 23.59123 | 58.07723 | 14944 ft | 382 kts | 271° |
| 2026-05-05 10:02 | 23.59111 | 58.04876 | 15843 ft | 378 kts | 270° |
| 2026-05-05 10:02 | 23.59075 | 58.02002 | 16556 ft | 381 kts | 270° |
| 2026-05-05 10:02 | 23.59034 | 57.99095 | 17153 ft | 387 kts | 270° |
| 2026-05-05 10:02 | 23.59017 | 57.96129 | 17695 ft | 393 kts | 271° |
| 2026-05-05 10:03 | 23.59014 | 57.93130 | 18287 ft | 397 kts | 271° |
| 2026-05-05 10:03 | 23.59015 | 57.90117 | 18892 ft | 398 kts | 271° |
| 2026-05-05 10:03 | 23.59013 | 57.87087 | 19439 ft | 400 kts | 271° |
| 2026-05-05 10:03 | 23.59007 | 57.84047 | 20024 ft | 402 kts | 271° |
| 2026-05-05 10:04 | 23.59002 | 57.81014 | 20487 ft | 407 kts | 271° |
| 2026-05-05 10:04 | 23.59002 | 57.77909 | 20943 ft | 412 kts | 271° |
| 2026-05-05 10:04 | 23.59004 | 57.74774 | 21482 ft | 413 kts | 271° |
| 2026-05-05 10:04 | 23.59005 | 57.71632 | 22028 ft | 415 kts | 270° |
| 2026-05-05 10:05 | 23.59006 | 57.68463 | 22551 ft | 418 kts | 270° |
| 2026-05-05 10:05 | 23.59006 | 57.65273 | 23007 ft | 422 kts | 270° |
| 2026-05-05 10:05 | 23.59005 | 57.62057 | 23389 ft | 428 kts | 270° |
| 2026-05-05 10:05 | 23.59003 | 57.58798 | 23827 ft | 429 kts | 270° |
| 2026-05-05 10:06 | 23.59000 | 57.55579 | 24262 ft | 430 kts | 270° |
| 2026-05-05 10:06 | 23.58997 | 57.52298 | 24677 ft | 433 kts | 270° |
| 2026-05-05 10:06 | 23.58992 | 57.48999 | 25073 ft | 436 kts | 270° |
| 2026-05-05 10:06 | 23.58987 | 57.45686 | 25498 ft | 438 kts | 270° |
| 2026-05-05 10:07 | 23.58981 | 57.42364 | 25927 ft | 439 kts | 270° |
| 2026-05-05 10:07 | 23.58974 | 57.39020 | 26353 ft | 441 kts | 270° |
| 2026-05-05 10:07 | 23.58967 | 57.35671 | 26801 ft | 443 kts | 270° |
| 2026-05-05 10:07 | 23.58959 | 57.32305 | 27205 ft | 445 kts | 270° |
| 2026-05-05 10:08 | 23.58950 | 57.28970 | 27607 ft | 447 kts | 270° |
| 2026-05-05 10:08 | 23.58941 | 57.25567 | 28027 ft | 449 kts | 270° |
| 2026-05-05 10:08 | 23.58930 | 57.22158 | 28427 ft | 451 kts | 270° |
| 2026-05-05 10:08 | 23.58919 | 57.18727 | 28831 ft | 452 kts | 270° |
| 2026-05-05 10:09 | 23.58987 | 57.15294 | 29252 ft | 454 kts | 275° |
| 2026-05-05 10:09 | 23.59423 | 57.11877 | 29604 ft | 456 kts | 282° |
| 2026-05-05 10:09 | 23.60314 | 57.08545 | 30016 ft | 458 kts | 289° |
| 2026-05-05 10:09 | 23.61466 | 57.05332 | 30318 ft | 460 kts | 291° |
| 2026-05-05 10:10 | 23.62723 | 57.02115 | 30620 ft | 462 kts | 292° |
| 2026-05-05 10:10 | 23.64034 | 56.98901 | 30955 ft | 463 kts | 293° |
| 2026-05-05 10:10 | 23.65355 | 56.95709 | 31432 ft | 460 kts | 293° |
| 2026-05-05 10:10 | 23.66672 | 56.92528 | 31904 ft | 458 kts | 293° |
| 2026-05-05 10:11 | 23.67976 | 56.89359 | 32370 ft | 456 kts | 292° |
| 2026-05-05 10:11 | 23.69266 | 56.86201 | 32805 ft | 454 kts | 292° |
| 2026-05-05 10:11 | 23.70545 | 56.83053 | 33255 ft | 452 kts | 292° |
| 2026-05-05 10:11 | 23.71810 | 56.79926 | 33664 ft | 451 kts | 292° |
| 2026-05-05 10:12 | 23.73075 | 56.76789 | 33832 ft | 451 kts | 292° |
| 2026-05-05 10:12 | 23.74334 | 56.73666 | 33839 ft | 448 kts | 292° |
| 2026-05-05 10:12 | 23.76824 | 56.67480 | 33854 ft | 446 kts | 292° |
| 2026-05-05 10:13 | 23.79316 | 56.61287 | 33847 ft | 445 kts | 292° |
| 2026-05-05 10:13 | 23.81806 | 56.55087 | 33849 ft | 445 kts | 292° |
| 2026-05-05 10:14 | 23.84289 | 56.48895 | 33850 ft | 445 kts | 292° |
| 2026-05-05 10:14 | 23.86760 | 56.42730 | 33850 ft | 445 kts | 292° |
| 2026-05-05 10:15 | 23.89242 | 56.36527 | 33842 ft | 445 kts | 292° |
| 2026-05-05 10:15 | 23.91721 | 56.30323 | 33837 ft | 444 kts | 292° |
| 2026-05-05 10:16 | 23.94250 | 56.24194 | 33842 ft | 446 kts | 296° |
| 2026-05-05 10:16 | 23.97523 | 56.18416 | 33840 ft | 447 kts | 301° |
| 2026-05-05 10:17 | 24.00984 | 56.12763 | 33829 ft | 447 kts | 302° |
| 2026-05-05 10:17 | 24.04487 | 56.07121 | 33810 ft | 447 kts | 302° |
| 2026-05-05 10:18 | 24.07958 | 56.01510 | 33826 ft | 447 kts | 302° |
| 2026-05-05 10:18 | 24.11439 | 55.95852 | 33819 ft | 447 kts | 301° |
| 2026-05-05 10:19 | 24.14909 | 55.90198 | 33813 ft | 447 kts | 301° |
| 2026-05-05 10:19 | 24.18379 | 55.84538 | 33802 ft | 447 kts | 301° |
| 2026-05-05 10:20 | 24.21366 | 55.78641 | 33803 ft | 444 kts | 290° |
| 2026-05-05 10:20 | 24.23224 | 55.72190 | 33795 ft | 443 kts | 284° |
| 2026-05-05 10:21 | 24.24812 | 55.65693 | 33799 ft | 443 kts | 284° |
| 2026-05-05 10:21 | 24.26325 | 55.59143 | 33804 ft | 443 kts | 282° |
| 2026-05-05 10:22 | 24.27621 | 55.52535 | 33801 ft | 442 kts | 281° |
| 2026-05-05 10:22 | 24.28852 | 55.45937 | 33792 ft | 441 kts | 281° |
| 2026-05-05 10:23 | 24.30153 | 55.39357 | 33787 ft | 441 kts | 285° |
| 2026-05-05 10:23 | 24.32573 | 55.33212 | 33774 ft | 444 kts | 298° |
| 2026-05-05 10:24 | 24.35851 | 55.27456 | 33780 ft | 446 kts | 301° |
| 2026-05-05 10:24 | 24.39285 | 55.21781 | 33759 ft | 446 kts | 301° |
| 2026-05-05 10:25 | 24.42721 | 55.16096 | 33764 ft | 447 kts | 301° |
| 2026-05-05 10:25 | 24.46132 | 55.10381 | 33752 ft | 448 kts | 300° |
| 2026-05-05 10:26 | 24.49505 | 55.04700 | 33749 ft | 446 kts | 300° |
| 2026-05-05 10:26 | 24.52888 | 54.98991 | 33759 ft | 446 kts | 300° |
| 2026-05-05 10:27 | 24.56258 | 54.93297 | 33743 ft | 447 kts | 300° |
| 2026-05-05 10:27 | 24.59636 | 54.87556 | 33751 ft | 447 kts | 300° |
| 2026-05-05 10:28 | 24.62891 | 54.81732 | 33753 ft | 445 kts | 298° |
| 2026-05-05 10:28 | 24.66081 | 54.75904 | 33754 ft | 445 kts | 298° |
| 2026-05-05 10:29 | 24.69276 | 54.70073 | 33746 ft | 445 kts | 298° |
| 2026-05-05 10:29 | 24.72474 | 54.64254 | 33757 ft | 445 kts | 298° |
| 2026-05-05 10:30 | 24.75675 | 54.58429 | 33753 ft | 445 kts | 298° |
| 2026-05-05 10:30 | 24.78872 | 54.52603 | 33758 ft | 444 kts | 298° |
| 2026-05-05 10:31 | 24.82046 | 54.46811 | 33760 ft | 443 kts | 298° |
| 2026-05-05 10:31 | 24.85236 | 54.40983 | 33760 ft | 444 kts | 298° |
| 2026-05-05 10:32 | 24.88485 | 54.35191 | 33764 ft | 444 kts | 299° |
| 2026-05-05 10:32 | 24.91771 | 54.29474 | 33762 ft | 444 kts | 299° |
| 2026-05-05 10:33 | 24.95080 | 54.23718 | 33776 ft | 444 kts | 299° |
| 2026-05-05 10:33 | 24.98380 | 54.17951 | 33763 ft | 443 kts | 298° |
| 2026-05-05 10:34 | 25.01664 | 54.12196 | 33765 ft | 443 kts | 298° |
| 2026-05-05 10:34 | 25.04924 | 54.06474 | 33768 ft | 443 kts | 298° |
| 2026-05-05 10:35 | 25.08201 | 54.00713 | 33765 ft | 443 kts | 298° |
| 2026-05-05 10:35 | 25.11475 | 53.94953 | 33768 ft | 443 kts | 298° |
| 2026-05-05 10:36 | 25.14757 | 53.89171 | 33768 ft | 443 kts | 298° |
| 2026-05-05 10:36 | 25.18035 | 53.83392 | 33774 ft | 443 kts | 298° |
| 2026-05-05 10:37 | 25.21296 | 53.77604 | 33771 ft | 443 kts | 297° |
| 2026-05-05 10:37 | 25.24427 | 53.71800 | 33770 ft | 443 kts | 297° |
| 2026-05-05 10:38 | 25.27545 | 53.65918 | 33774 ft | 443 kts | 297° |
| 2026-05-05 10:38 | 25.30664 | 53.60039 | 33775 ft | 442 kts | 296° |
| 2026-05-05 10:39 | 25.33780 | 53.54180 | 33771 ft | 442 kts | 296° |
| 2026-05-05 10:39 | 25.36900 | 53.48316 | 33771 ft | 442 kts | 296° |
| 2026-05-05 10:40 | 25.39997 | 53.42486 | 33777 ft | 442 kts | 296° |
| 2026-05-05 10:40 | 25.43113 | 53.36615 | 33777 ft | 442 kts | 296° |
| 2026-05-05 10:41 | 25.46229 | 53.30734 | 33777 ft | 442 kts | 296° |
| 2026-05-05 10:41 | 25.49445 | 53.24988 | 33771 ft | 444 kts | 302° |
| 2026-05-05 10:42 | 25.55841 | 53.17396 | 33774 ft | 451 kts | 310° |
| 2026-05-05 10:43 | 25.60318 | 53.12559 | 33772 ft | 451 kts | 310° |
| 2026-05-05 10:43 | 25.64820 | 53.07711 | 33777 ft | 451 kts | 310° |
| 2026-05-05 10:44 | 25.69221 | 53.02773 | 33776 ft | 446 kts | 304° |
| 2026-05-05 10:44 | 25.72603 | 52.97094 | 33777 ft | 439 kts | 295° |
| 2026-05-05 10:45 | 25.75483 | 52.91169 | 33772 ft | 438 kts | 293° |
| 2026-05-05 10:45 | 25.78285 | 52.85162 | 33774 ft | 438 kts | 293° |
| 2026-05-05 10:46 | 25.80611 | 52.80174 | 33777 ft | 438 kts | 293° |
| 2026-05-05 10:46 | 25.83414 | 52.74198 | 33774 ft | 438 kts | 293° |
| 2026-05-05 10:47 | 25.86241 | 52.68188 | 33771 ft | 438 kts | 293° |
| 2026-05-05 10:47 | 25.89058 | 52.62195 | 33774 ft | 438 kts | 293° |
| 2026-05-05 10:48 | 25.91815 | 52.56143 | 33774 ft | 437 kts | 292° |
| 2026-05-05 10:48 | 25.94471 | 52.50100 | 33774 ft | 437 kts | 291° |
| 2026-05-05 10:49 | 25.97133 | 52.44020 | 33779 ft | 436 kts | 291° |
| 2026-05-05 10:49 | 25.99807 | 52.37949 | 33776 ft | 436 kts | 292° |
| 2026-05-05 10:50 | 26.02503 | 52.31906 | 33771 ft | 436 kts | 292° |
| 2026-05-05 10:50 | 26.05208 | 52.25855 | 33773 ft | 436 kts | 292° |
| 2026-05-05 10:51 | 26.07888 | 52.19845 | 33776 ft | 437 kts | 292° |
| 2026-05-05 10:51 | 26.10589 | 52.13777 | 33779 ft | 436 kts | 291° |
| 2026-05-05 10:52 | 26.13271 | 52.07740 | 33774 ft | 435 kts | 291° |
| 2026-05-05 10:52 | 26.15952 | 52.01695 | 33774 ft | 435 kts | 291° |
| 2026-05-05 10:53 | 26.18631 | 51.95701 | 33774 ft | 435 kts | 291° |
| 2026-05-05 10:53 | 26.21327 | 51.89671 | 33774 ft | 435 kts | 291° |
| 2026-05-05 10:54 | 26.23996 | 51.83620 | 33780 ft | 434 kts | 291° |
| 2026-05-05 10:54 | 26.26657 | 51.77593 | 33774 ft | 433 kts | 291° |
| 2026-05-05 10:55 | 26.29322 | 51.71613 | 33773 ft | 432 kts | 291° |
| 2026-05-05 10:55 | 26.32003 | 51.65598 | 33775 ft | 432 kts | 291° |
| 2026-05-05 10:56 | 26.34683 | 51.59589 | 33774 ft | 432 kts | 291° |
| 2026-05-05 10:56 | 26.37337 | 51.53567 | 33775 ft | 431 kts | 288° |
| 2026-05-05 10:57 | 26.39475 | 51.47401 | 33776 ft | 427 kts | 285° |
| 2026-05-05 10:57 | 26.41483 | 51.41172 | 33774 ft | 426 kts | 285° |
| 2026-05-05 10:58 | 26.43464 | 51.34922 | 33774 ft | 426 kts | 284° |
| 2026-05-05 10:58 | 26.45447 | 51.28684 | 33773 ft | 427 kts | 285° |
| 2026-05-05 10:59 | 26.47428 | 51.22470 | 33774 ft | 427 kts | 285° |
| 2026-05-05 10:59 | 26.49424 | 51.16211 | 33775 ft | 427 kts | 285° |
| 2026-05-05 11:00 | 26.51413 | 51.09965 | 33778 ft | 425 kts | 284° |
| 2026-05-05 11:00 | 26.53389 | 51.03749 | 33779 ft | 424 kts | 284° |
| 2026-05-05 11:01 | 26.55350 | 50.97561 | 33777 ft | 424 kts | 284° |
| 2026-05-05 11:01 | 26.57316 | 50.91343 | 33780 ft | 424 kts | 284° |
| 2026-05-05 11:02 | 26.59262 | 50.85102 | 33770 ft | 424 kts | 284° |
| 2026-05-05 11:02 | 26.61191 | 50.78867 | 33774 ft | 425 kts | 284° |
| 2026-05-05 11:03 | 26.63108 | 50.72666 | 33786 ft | 423 kts | 284° |
| 2026-05-05 11:03 | 26.65011 | 50.66444 | 33771 ft | 422 kts | 283° |
| 2026-05-05 11:04 | 26.66849 | 50.60257 | 33777 ft | 422 kts | 283° |
| 2026-05-05 11:04 | 26.68686 | 50.54022 | 33773 ft | 422 kts | 283° |
| 2026-05-05 11:05 | 26.70513 | 50.47765 | 33772 ft | 422 kts | 282° |
| 2026-05-05 11:05 | 26.72174 | 50.41480 | 33773 ft | 421 kts | 281° |
| 2026-05-05 11:06 | 26.73759 | 50.35213 | 33773 ft | 420 kts | 281° |
| 2026-05-05 11:06 | 26.75357 | 50.28914 | 33774 ft | 420 kts | 281° |
| 2026-05-05 11:07 | 26.77086 | 50.22686 | 33767 ft | 421 kts | 283° |
| 2026-05-05 11:07 | 26.78964 | 50.16457 | 33765 ft | 421 kts | 283° |
| 2026-05-05 11:08 | 26.80847 | 50.10243 | 33764 ft | 421 kts | 283° |
| 2026-05-05 11:08 | 26.82707 | 50.04027 | 33752 ft | 421 kts | 283° |
| 2026-05-05 11:09 | 26.84544 | 49.97846 | 33756 ft | 420 kts | 283° |
| 2026-05-05 11:09 | 26.86383 | 49.91637 | 33751 ft | 419 kts | 283° |
| 2026-05-05 11:10 | 26.88217 | 49.85436 | 33747 ft | 419 kts | 283° |
| 2026-05-05 11:10 | 26.90043 | 49.79249 | 33752 ft | 419 kts | 283° |
| 2026-05-05 11:11 | 26.91861 | 49.73082 | 33735 ft | 419 kts | 283° |
| 2026-05-05 11:11 | 26.93686 | 49.66879 | 33734 ft | 419 kts | 283° |
| 2026-05-05 11:12 | 26.95513 | 49.60664 | 33737 ft | 418 kts | 282° |
| 2026-05-05 11:12 | 26.97330 | 49.54468 | 33735 ft | 417 kts | 282° |
| 2026-05-05 11:13 | 26.99131 | 49.48315 | 33731 ft | 417 kts | 282° |
| 2026-05-05 11:13 | 27.01021 | 49.42139 | 33732 ft | 421 kts | 287° |
| 2026-05-05 11:14 | 27.03699 | 49.36220 | 33735 ft | 426 kts | 292° |
| 2026-05-05 11:14 | 27.06583 | 49.30441 | 33733 ft | 427 kts | 292° |
| 2026-05-05 11:15 | 27.09531 | 49.24637 | 33735 ft | 428 kts | 292° |
| 2026-05-05 11:15 | 27.12457 | 49.18847 | 33736 ft | 428 kts | 292° |
| 2026-05-05 11:16 | 27.15389 | 49.13011 | 33733 ft | 428 kts | 292° |
| 2026-05-05 11:16 | 27.18316 | 49.07168 | 33743 ft | 428 kts | 292° |
| 2026-05-05 11:17 | 27.21235 | 49.01332 | 33737 ft | 428 kts | 292° |
| 2026-05-05 11:17 | 27.24130 | 48.95532 | 33736 ft | 427 kts | 292° |
| 2026-05-05 11:18 | 27.27038 | 48.89698 | 33740 ft | 427 kts | 292° |
| 2026-05-05 11:18 | 27.29943 | 48.83861 | 33737 ft | 427 kts | 292° |
| 2026-05-05 11:19 | 27.32831 | 48.78051 | 33752 ft | 427 kts | 292° |
| 2026-05-05 11:19 | 27.35722 | 48.72230 | 33741 ft | 426 kts | 292° |
| 2026-05-05 11:20 | 27.38608 | 48.66410 | 33732 ft | 425 kts | 291° |
| 2026-05-05 11:20 | 27.41477 | 48.60615 | 33737 ft | 425 kts | 291° |
| 2026-05-05 11:21 | 27.44353 | 48.54798 | 33731 ft | 425 kts | 291° |
| 2026-05-05 11:21 | 27.47229 | 48.48973 | 33739 ft | 425 kts | 291° |
| 2026-05-05 11:22 | 27.50098 | 48.43156 | 33755 ft | 424 kts | 291° |
| 2026-05-05 11:22 | 27.52958 | 48.37350 | 33736 ft | 423 kts | 291° |
| 2026-05-05 11:23 | 27.55793 | 48.31584 | 33741 ft | 423 kts | 291° |
| 2026-05-05 11:23 | 27.58649 | 48.25770 | 33753 ft | 424 kts | 291° |
| 2026-05-05 11:24 | 27.61506 | 48.19956 | 33734 ft | 423 kts | 291° |
| 2026-05-05 11:24 | 27.64361 | 48.14144 | 33735 ft | 422 kts | 291° |
| 2026-05-05 11:25 | 27.67189 | 48.08378 | 33738 ft | 422 kts | 291° |
| 2026-05-05 11:25 | 27.70032 | 48.02568 | 33741 ft | 422 kts | 291° |
| 2026-05-05 11:26 | 27.72868 | 47.96754 | 33740 ft | 421 kts | 291° |
| 2026-05-05 11:26 | 27.75690 | 47.90956 | 33738 ft | 421 kts | 290° |
| 2026-05-05 11:27 | 27.78494 | 47.85190 | 33742 ft | 421 kts | 290° |
| 2026-05-05 11:27 | 27.81308 | 47.79393 | 33746 ft | 421 kts | 290° |
| 2026-05-05 11:28 | 27.84032 | 47.73540 | 33757 ft | 416 kts | 286° |
| 2026-05-05 11:28 | 27.86095 | 47.67468 | 33745 ft | 413 kts | 283° |
| 2026-05-05 11:29 | 27.87995 | 47.61391 | 33746 ft | 412 kts | 282° |
| 2026-05-05 11:29 | 27.89874 | 47.55271 | 33744 ft | 412 kts | 282° |
| 2026-05-05 11:30 | 27.91760 | 47.49143 | 33745 ft | 412 kts | 282° |
| 2026-05-05 11:30 | 27.93649 | 47.43021 | 33773 ft | 412 kts | 282° |
| 2026-05-05 11:31 | 27.95530 | 47.36926 | 33750 ft | 412 kts | 282° |
| 2026-05-05 11:31 | 27.97419 | 47.30793 | 33752 ft | 412 kts | 282° |
| 2026-05-05 11:32 | 27.99303 | 47.24664 | 33754 ft | 412 kts | 282° |
| 2026-05-05 11:32 | 28.01187 | 47.18528 | 33758 ft | 412 kts | 282° |
| 2026-05-05 11:33 | 28.02753 | 47.13415 | 33760 ft | 413 kts | 282° |
| 2026-05-05 11:33 | 28.04920 | 47.06326 | 33762 ft | 413 kts | 282° |
| 2026-05-05 11:34 | 28.06483 | 47.01207 | 33763 ft | 412 kts | 282° |
| 2026-05-05 11:34 | 28.08356 | 46.95059 | 33763 ft | 413 kts | 282° |
| 2026-05-05 11:35 | 28.10541 | 46.87905 | 33767 ft | 414 kts | 283° |
| 2026-05-05 11:35 | 28.12213 | 46.82768 | 33765 ft | 415 kts | 283° |
| 2026-05-05 11:36 | 28.14258 | 46.76691 | 33774 ft | 415 kts | 284° |
| 2026-05-05 11:36 | 28.16313 | 46.70581 | 33779 ft | 415 kts | 283° |
| 2026-05-05 11:37 | 28.18355 | 46.64459 | 33770 ft | 415 kts | 283° |
| 2026-05-05 11:37 | 28.20385 | 46.58341 | 33767 ft | 414 kts | 283° |
| 2026-05-05 11:38 | 28.22400 | 46.52256 | 33784 ft | 414 kts | 283° |
| 2026-05-05 11:38 | 28.24427 | 46.46126 | 33799 ft | 415 kts | 283° |
| 2026-05-05 11:39 | 28.26451 | 46.39993 | 33801 ft | 415 kts | 283° |
| 2026-05-05 11:39 | 28.28464 | 46.33887 | 33820 ft | 415 kts | 283° |
| 2026-05-05 11:40 | 28.30481 | 46.27756 | 33826 ft | 415 kts | 283° |
| 2026-05-05 11:40 | 28.32495 | 46.21626 | 33831 ft | 414 kts | 283° |
| 2026-05-05 11:41 | 28.34507 | 46.15491 | 33832 ft | 414 kts | 283° |
| 2026-05-05 11:41 | 28.36574 | 46.09372 | 33827 ft | 416 kts | 285° |
| 2026-05-05 11:42 | 28.38824 | 46.03305 | 33833 ft | 417 kts | 286° |
| 2026-05-05 11:42 | 28.41103 | 45.97274 | 33826 ft | 417 kts | 286° |
| 2026-05-05 11:43 | 28.43376 | 45.91207 | 33844 ft | 417 kts | 285° |
| 2026-05-05 11:43 | 28.45618 | 45.85173 | 33832 ft | 417 kts | 285° |
| 2026-05-05 11:44 | 28.47867 | 45.79096 | 33837 ft | 416 kts | 285° |
| 2026-05-05 11:44 | 28.50118 | 45.73006 | 33839 ft | 416 kts | 285° |
| 2026-05-05 11:45 | 28.52342 | 45.66978 | 33839 ft | 416 kts | 285° |
| 2026-05-05 11:45 | 28.54585 | 45.60891 | 33848 ft | 416 kts | 285° |
| 2026-05-05 11:46 | 28.56819 | 45.54819 | 33848 ft | 415 kts | 285° |
| 2026-05-05 11:46 | 28.59048 | 45.48750 | 33851 ft | 415 kts | 285° |
| 2026-05-05 11:47 | 28.61258 | 45.42723 | 33849 ft | 415 kts | 285° |
| 2026-05-05 11:47 | 28.63480 | 45.36654 | 33851 ft | 415 kts | 285° |
| 2026-05-05 11:48 | 28.66805 | 45.27552 | 33855 ft | 415 kts | 285° |
| 2026-05-05 11:48 | 28.69017 | 45.21484 | 33871 ft | 415 kts | 285° |
| 2026-05-05 11:49 | 28.71218 | 45.15436 | 33873 ft | 414 kts | 285° |
| 2026-05-05 11:49 | 28.73421 | 45.09374 | 33869 ft | 414 kts | 285° |
| 2026-05-05 11:50 | 28.75499 | 45.03645 | 33870 ft | 415 kts | 285° |
| 2026-05-05 11:50 | 28.77691 | 44.97593 | 33880 ft | 415 kts | 285° |
| 2026-05-05 11:51 | 28.79889 | 44.91514 | 33874 ft | 415 kts | 285° |
| 2026-05-05 11:51 | 28.82086 | 44.85429 | 33871 ft | 414 kts | 285° |
| 2026-05-05 11:52 | 28.84279 | 44.79343 | 33876 ft | 414 kts | 285° |
| 2026-05-05 11:52 | 28.85969 | 44.73135 | 33880 ft | 405 kts | 274° |
| 2026-05-05 11:53 | 28.86675 | 44.66824 | 33882 ft | 402 kts | 271° |
| 2026-05-05 11:53 | 28.87185 | 44.60481 | 33900 ft | 402 kts | 270° |
| 2026-05-05 11:54 | 28.87663 | 44.54121 | 33883 ft | 401 kts | 270° |
| 2026-05-05 11:54 | 28.88149 | 44.47800 | 33878 ft | 401 kts | 270° |
| 2026-05-05 11:55 | 28.88646 | 44.41458 | 33921 ft | 401 kts | 270° |
| 2026-05-05 11:55 | 28.89145 | 44.35118 | 33894 ft | 400 kts | 270° |
| 2026-05-05 11:56 | 28.89639 | 44.28786 | 33898 ft | 400 kts | 270° |
| 2026-05-05 11:56 | 28.90126 | 44.22496 | 33922 ft | 400 kts | 270° |
| 2026-05-05 11:57 | 28.90612 | 44.16172 | 33906 ft | 400 kts | 270° |
| 2026-05-05 11:57 | 28.91096 | 44.09850 | 33908 ft | 400 kts | 270° |
| 2026-05-05 11:58 | 28.91577 | 44.03524 | 33909 ft | 400 kts | 270° |
| 2026-05-05 11:58 | 28.92056 | 43.97191 | 33916 ft | 400 kts | 270° |
| 2026-05-05 11:59 | 28.92530 | 43.90862 | 33919 ft | 400 kts | 270° |
| 2026-05-05 11:59 | 28.92999 | 43.84574 | 33913 ft | 400 kts | 270° |
| 2026-05-05 12:00 | 28.93469 | 43.78247 | 33925 ft | 399 kts | 270° |
| 2026-05-05 12:00 | 28.93934 | 43.71932 | 33930 ft | 399 kts | 270° |
| 2026-05-05 12:01 | 28.94394 | 43.65643 | 33930 ft | 399 kts | 270° |
| 2026-05-05 12:01 | 28.94856 | 43.59286 | 33931 ft | 399 kts | 270° |
| 2026-05-05 12:02 | 28.95311 | 43.52992 | 33935 ft | 400 kts | 270° |
| 2026-05-05 12:02 | 28.95765 | 43.46665 | 33934 ft | 400 kts | 270° |
| 2026-05-05 12:03 | 28.96217 | 43.40327 | 33949 ft | 400 kts | 270° |
| 2026-05-05 12:03 | 28.96665 | 43.34003 | 33955 ft | 400 kts | 270° |
| 2026-05-05 12:04 | 28.97107 | 43.27713 | 33938 ft | 399 kts | 270° |
| 2026-05-05 12:04 | 28.97549 | 43.21388 | 33948 ft | 400 kts | 270° |
| 2026-05-05 12:05 | 28.97988 | 43.15054 | 33945 ft | 400 kts | 270° |
| 2026-05-05 12:05 | 28.98425 | 43.08712 | 33948 ft | 400 kts | 270° |
| 2026-05-05 12:06 | 28.98856 | 43.02413 | 33966 ft | 400 kts | 270° |
| 2026-05-05 12:06 | 28.99287 | 42.96076 | 33957 ft | 400 kts | 269° |
| 2026-05-05 12:07 | 28.99715 | 42.89734 | 33955 ft | 400 kts | 269° |
| 2026-05-05 12:07 | 29.00139 | 42.83398 | 33960 ft | 400 kts | 269° |
| 2026-05-05 12:08 | 29.00558 | 42.77103 | 33961 ft | 400 kts | 269° |
| 2026-05-05 12:08 | 29.00977 | 42.70756 | 33977 ft | 399 kts | 269° |
| 2026-05-05 12:09 | 29.01393 | 42.64421 | 33973 ft | 400 kts | 269° |
| 2026-05-05 12:09 | 29.01804 | 42.58117 | 33973 ft | 400 kts | 269° |
| 2026-05-05 12:10 | 29.02213 | 42.51781 | 33981 ft | 400 kts | 269° |
| 2026-05-05 12:10 | 29.02620 | 42.45445 | 33970 ft | 400 kts | 269° |
| 2026-05-05 12:11 | 29.03024 | 42.39089 | 33981 ft | 400 kts | 269° |
| 2026-05-05 12:11 | 29.03426 | 42.32734 | 33982 ft | 401 kts | 269° |
| 2026-05-05 12:12 | 29.03825 | 42.26373 | 33986 ft | 401 kts | 269° |
| 2026-05-05 12:12 | 29.04219 | 42.20045 | 33986 ft | 401 kts | 269° |
| 2026-05-05 12:13 | 29.04613 | 42.13669 | 33987 ft | 401 kts | 269° |
| 2026-05-05 12:13 | 29.05001 | 42.07333 | 33988 ft | 401 kts | 269° |
| 2026-05-05 12:14 | 29.05388 | 42.00963 | 33997 ft | 401 kts | 269° |
| 2026-05-05 12:14 | 29.05771 | 41.94601 | 33998 ft | 400 kts | 269° |
| 2026-05-05 12:15 | 29.06151 | 41.88254 | 33989 ft | 400 kts | 269° |
| 2026-05-05 12:15 | 29.06525 | 41.81892 | 34002 ft | 401 kts | 269° |
| 2026-05-05 12:16 | 29.06898 | 41.75519 | 34013 ft | 401 kts | 269° |
| 2026-05-05 12:16 | 29.07264 | 41.69212 | 34006 ft | 400 kts | 269° |
| 2026-05-05 12:17 | 29.07630 | 41.62850 | 34007 ft | 400 kts | 269° |
| 2026-05-05 12:17 | 29.07991 | 41.56540 | 34007 ft | 400 kts | 269° |
| 2026-05-05 12:18 | 29.08350 | 41.50210 | 34008 ft | 397 kts | 269° |
| 2026-05-05 12:18 | 29.08705 | 41.43907 | 34010 ft | 397 kts | 268° |
| 2026-05-05 12:19 | 29.09057 | 41.37601 | 34016 ft | 397 kts | 268° |
| 2026-05-05 12:19 | 29.09406 | 41.31346 | 34009 ft | 396 kts | 268° |
| 2026-05-05 12:20 | 29.09754 | 41.25060 | 34012 ft | 395 kts | 268° |
| 2026-05-05 12:20 | 29.10040 | 41.19849 | 34014 ft | 395 kts | 268° |
| 2026-05-05 12:21 | 29.10435 | 41.12528 | 34046 ft | 397 kts | 268° |
| 2026-05-05 12:21 | 29.10775 | 41.06238 | 34030 ft | 396 kts | 268° |
| 2026-05-05 12:22 | 29.11057 | 41.00973 | 34032 ft | 396 kts | 268° |
| 2026-05-05 12:22 | 29.11388 | 40.94728 | 34033 ft | 396 kts | 268° |
| 2026-05-05 12:23 | 29.11719 | 40.88441 | 34038 ft | 395 kts | 268° |
| 2026-05-05 12:23 | 29.12046 | 40.82167 | 34038 ft | 394 kts | 268° |
| 2026-05-05 12:24 | 29.12366 | 40.75955 | 34041 ft | 394 kts | 268° |
| 2026-05-05 12:24 | 29.12684 | 40.69697 | 34051 ft | 394 kts | 268° |
| 2026-05-05 12:25 | 29.13000 | 40.63450 | 34047 ft | 394 kts | 268° |
| 2026-05-05 12:25 | 29.13212 | 40.57198 | 34044 ft | 391 kts | 265° |
| 2026-05-05 12:26 | 29.13080 | 40.50975 | 34032 ft | 391 kts | 264° |
| 2026-05-05 12:26 | 29.12878 | 40.44765 | 34056 ft | 393 kts | 264° |
| 2026-05-05 12:27 | 29.12661 | 40.38509 | 34052 ft | 392 kts | 264° |
| 2026-05-05 12:27 | 29.12449 | 40.32308 | 34051 ft | 393 kts | 264° |
| 2026-05-05 12:28 | 29.12235 | 40.26053 | 34053 ft | 393 kts | 264° |
| 2026-05-05 12:28 | 29.12021 | 40.19817 | 34050 ft | 392 kts | 264° |
| 2026-05-05 12:29 | 29.11803 | 40.13585 | 34059 ft | 391 kts | 264° |
| 2026-05-05 12:29 | 29.11583 | 40.07412 | 34046 ft | 391 kts | 264° |
| 2026-05-05 12:30 | 29.11360 | 40.01180 | 34065 ft | 391 kts | 264° |
| 2026-05-05 12:30 | 29.11137 | 39.95014 | 34051 ft | 390 kts | 264° |
| 2026-05-05 12:31 | 29.10957 | 39.88814 | 34050 ft | 391 kts | 265° |
| 2026-05-05 12:31 | 29.10964 | 39.82582 | 34048 ft | 392 kts | 266° |
| 2026-05-05 12:32 | 29.11019 | 39.76338 | 34051 ft | 392 kts | 266° |
| 2026-05-05 12:32 | 29.11058 | 39.70096 | 34045 ft | 392 kts | 266° |
| 2026-05-05 12:33 | 29.11081 | 39.63902 | 34045 ft | 392 kts | 266° |
| 2026-05-05 12:33 | 29.11096 | 39.57654 | 34063 ft | 392 kts | 266° |
| 2026-05-05 12:34 | 29.11108 | 39.51439 | 34039 ft | 391 kts | 266° |
| 2026-05-05 12:34 | 29.11118 | 39.45246 | 34037 ft | 391 kts | 265° |
| 2026-05-05 12:35 | 29.11125 | 39.39019 | 34039 ft | 391 kts | 265° |
| 2026-05-05 12:35 | 29.11129 | 39.32801 | 34026 ft | 390 kts | 265° |
| 2026-05-05 12:36 | 29.11130 | 39.26592 | 34034 ft | 390 kts | 265° |
| 2026-05-05 12:36 | 29.11129 | 39.20416 | 34034 ft | 390 kts | 265° |
| 2026-05-05 12:37 | 29.11124 | 39.14210 | 34034 ft | 390 kts | 265° |
| 2026-05-05 12:37 | 29.11117 | 39.07992 | 34034 ft | 392 kts | 265° |
| 2026-05-05 12:38 | 29.11106 | 39.01740 | 34026 ft | 393 kts | 265° |
| 2026-05-05 12:38 | 29.11093 | 38.95510 | 34026 ft | 394 kts | 265° |
| 2026-05-05 12:39 | 29.11076 | 38.89244 | 34026 ft | 394 kts | 265° |
| 2026-05-05 12:39 | 29.11050 | 38.82969 | 34027 ft | 395 kts | 265° |
| 2026-05-05 12:40 | 29.11021 | 38.76671 | 34020 ft | 396 kts | 265° |
| 2026-05-05 12:40 | 29.10990 | 38.70410 | 34026 ft | 396 kts | 265° |
| 2026-05-05 12:41 | 29.10957 | 38.64108 | 34034 ft | 396 kts | 265° |
| 2026-05-05 12:41 | 29.10920 | 38.57795 | 34023 ft | 396 kts | 265° |
| 2026-05-05 12:42 | 29.10880 | 38.51531 | 34023 ft | 397 kts | 265° |
| 2026-05-05 12:42 | 29.10838 | 38.45222 | 34021 ft | 397 kts | 265° |
| 2026-05-05 12:43 | 29.10792 | 38.38903 | 34020 ft | 396 kts | 265° |
| 2026-05-05 12:43 | 29.10743 | 38.32589 | 34013 ft | 397 kts | 265° |
| 2026-05-05 12:44 | 29.10691 | 38.26316 | 34012 ft | 397 kts | 265° |
| 2026-05-05 12:44 | 29.10635 | 38.19996 | 34013 ft | 396 kts | 265° |
| 2026-05-05 12:45 | 29.10577 | 38.13685 | 34009 ft | 396 kts | 265° |
| 2026-05-05 12:45 | 29.10516 | 38.07372 | 34001 ft | 397 kts | 265° |
| 2026-05-05 12:46 | 29.10453 | 38.01101 | 33967 ft | 396 kts | 265° |
| 2026-05-05 12:46 | 29.10385 | 37.94785 | 34019 ft | 397 kts | 265° |
| 2026-05-05 12:47 | 29.10315 | 37.88460 | 33993 ft | 397 kts | 265° |
| 2026-05-05 12:47 | 29.10242 | 37.82140 | 33994 ft | 398 kts | 265° |
| 2026-05-05 12:48 | 29.10192 | 37.77948 | 33985 ft | 398 kts | 265° |
| 2026-05-05 12:48 | 29.10143 | 37.73975 | 33985 ft | 398 kts | 265° |
| 2026-05-05 12:49 | 29.10064 | 37.67646 | 33980 ft | 397 kts | 265° |
| 2026-05-05 12:49 | 29.09981 | 37.61326 | 33976 ft | 397 kts | 265° |
| 2026-05-05 12:50 | 29.09896 | 37.55004 | 33977 ft | 397 kts | 265° |
| 2026-05-05 12:50 | 29.09817 | 37.48726 | 33977 ft | 397 kts | 265° |
| 2026-05-05 12:51 | 29.09769 | 37.42408 | 33970 ft | 396 kts | 266° |
| 2026-05-05 12:51 | 29.09727 | 37.36103 | 33979 ft | 396 kts | 266° |
| 2026-05-05 12:52 | 29.09679 | 37.29809 | 33978 ft | 396 kts | 266° |
| 2026-05-05 12:52 | 29.09626 | 37.23512 | 33979 ft | 395 kts | 266° |
| 2026-05-05 12:53 | 29.09570 | 37.17264 | 33981 ft | 396 kts | 266° |
| 2026-05-05 12:53 | 29.09510 | 37.10967 | 33977 ft | 396 kts | 266° |
| 2026-05-05 12:54 | 29.09415 | 37.01501 | 33975 ft | 396 kts | 265° |
| 2026-05-05 12:55 | 29.09348 | 36.95228 | 33982 ft | 395 kts | 266° |
| 2026-05-05 12:55 | 29.09279 | 36.88949 | 33978 ft | 395 kts | 266° |
| 2026-05-05 12:56 | 29.09207 | 36.82672 | 33974 ft | 395 kts | 266° |
| 2026-05-05 12:56 | 29.09132 | 36.76428 | 33978 ft | 395 kts | 266° |
| 2026-05-05 12:57 | 29.09053 | 36.70139 | 33978 ft | 397 kts | 266° |
| 2026-05-05 12:57 | 29.08970 | 36.63793 | 33980 ft | 400 kts | 266° |
| 2026-05-05 12:58 | 29.08884 | 36.57432 | 33970 ft | 400 kts | 266° |
| 2026-05-05 12:58 | 29.08797 | 36.51083 | 33972 ft | 399 kts | 266° |
| 2026-05-05 12:59 | 29.08680 | 36.44749 | 33972 ft | 402 kts | 265° |
| 2026-05-05 12:59 | 29.08576 | 36.40782 | 33972 ft | 404 kts | 265° |
| 2026-05-05 13:00 | 29.08388 | 36.34129 | 33968 ft | 404 kts | 265° |
| 2026-05-05 13:01 | 29.08024 | 36.21284 | 33961 ft | 403 kts | 266° |
| 2026-05-05 13:01 | 29.07844 | 36.14939 | 33969 ft | 400 kts | 266° |
| 2026-05-05 13:02 | 29.07660 | 36.08566 | 33960 ft | 400 kts | 265° |
| 2026-05-05 13:02 | 29.07472 | 36.02204 | 33959 ft | 400 kts | 265° |
| 2026-05-05 13:03 | 29.07283 | 35.95880 | 33967 ft | 400 kts | 265° |
| 2026-05-05 13:03 | 29.07090 | 35.89524 | 33963 ft | 401 kts | 265° |
| 2026-05-05 13:04 | 29.06892 | 35.83137 | 33976 ft | 402 kts | 265° |
| 2026-05-05 13:04 | 29.06694 | 35.76746 | 33969 ft | 402 kts | 265° |
| 2026-05-05 13:05 | 29.06491 | 35.70373 | 33977 ft | 399 kts | 265° |
| 2026-05-05 13:05 | 29.06287 | 35.64038 | 33990 ft | 398 kts | 265° |
| 2026-05-05 13:06 | 29.06081 | 35.57760 | 33986 ft | 397 kts | 266° |
| 2026-05-05 13:06 | 29.05872 | 35.51444 | 33997 ft | 397 kts | 265° |
| 2026-05-05 13:07 | 29.05659 | 35.45128 | 33996 ft | 398 kts | 266° |
| 2026-05-05 13:07 | 29.05479 | 35.39861 | 34008 ft | 398 kts | 266° |
| 2026-05-05 13:08 | 29.05260 | 35.33531 | 34012 ft | 398 kts | 266° |
| 2026-05-05 13:08 | 29.05039 | 35.27206 | 34009 ft | 398 kts | 266° |
| 2026-05-05 13:09 | 29.04814 | 35.20856 | 34011 ft | 399 kts | 266° |
| 2026-05-05 13:09 | 29.04587 | 35.14550 | 34007 ft | 399 kts | 266° |
| 2026-05-05 13:10 | 29.04356 | 35.08201 | 33992 ft | 399 kts | 266° |
| 2026-05-05 13:10 | 29.04123 | 35.01866 | 34002 ft | 399 kts | 266° |
| 2026-05-05 13:11 | 29.03886 | 34.95524 | 33992 ft | 400 kts | 265° |
| 2026-05-05 13:11 | 29.03644 | 34.89153 | 33993 ft | 402 kts | 266° |
| 2026-05-05 13:12 | 29.03430 | 34.82776 | 34000 ft | 402 kts | 266° |
| 2026-05-05 13:12 | 29.03329 | 34.76375 | 33999 ft | 402 kts | 267° |
| 2026-05-05 13:13 | 29.03289 | 34.72816 | 33986 ft | 402 kts | 267° |
| 2026-05-05 13:13 | 29.03691 | 34.66405 | 33992 ft | 409 kts | 278° |
| 2026-05-05 13:14 | 29.05241 | 34.60098 | 34004 ft | 414 kts | 283° |
| 2026-05-05 13:14 | 29.07058 | 34.53886 | 33999 ft | 414 kts | 284° |
| 2026-05-05 13:15 | 29.08927 | 34.47646 | 34000 ft | 414 kts | 284° |
| 2026-05-05 13:15 | 29.10763 | 34.41453 | 34016 ft | 407 kts | 285° |
| 2026-05-05 13:16 | 29.12554 | 34.35339 | 34015 ft | 406 kts | 284° |
| 2026-05-05 13:16 | 29.14338 | 34.29210 | 34022 ft | 406 kts | 284° |
| 2026-05-05 13:17 | 29.16123 | 34.23070 | 34023 ft | 406 kts | 284° |
| 2026-05-05 13:17 | 29.17900 | 34.16946 | 34036 ft | 406 kts | 284° |
| 2026-05-05 13:18 | 29.19676 | 34.10820 | 34040 ft | 405 kts | 284° |
| 2026-05-05 13:18 | 29.21442 | 34.04717 | 34039 ft | 406 kts | 284° |
| 2026-05-05 13:19 | 29.23083 | 33.99038 | 34040 ft | 406 kts | 284° |
| 2026-05-05 13:19 | 29.24856 | 33.92888 | 34042 ft | 406 kts | 284° |
| 2026-05-05 13:20 | 29.26625 | 33.86744 | 34042 ft | 406 kts | 285° |
| 2026-05-05 13:20 | 29.28379 | 33.80641 | 34041 ft | 406 kts | 284° |
| 2026-05-05 13:21 | 29.30141 | 33.74499 | 34044 ft | 406 kts | 284° |
| 2026-05-05 13:21 | 29.31905 | 33.68339 | 34053 ft | 406 kts | 284° |
| 2026-05-05 13:22 | 29.33662 | 33.62188 | 34041 ft | 406 kts | 284° |
| 2026-05-05 13:22 | 29.35407 | 33.56070 | 34042 ft | 406 kts | 284° |
| 2026-05-05 13:23 | 29.37154 | 33.49930 | 34041 ft | 402 kts | 284° |
| 2026-05-05 13:23 | 29.38856 | 33.43951 | 34044 ft | 390 kts | 284° |
| 2026-05-05 13:24 | 29.40531 | 33.38041 | 34045 ft | 388 kts | 284° |
| 2026-05-05 13:24 | 29.42197 | 33.32146 | 33865 ft | 388 kts | 284° |
| 2026-05-05 13:25 | 29.43027 | 33.29204 | 33377 ft | 388 kts | 284° |
| 2026-05-05 13:25 | 29.43860 | 33.26253 | 32867 ft | 389 kts | 284° |
| 2026-05-05 13:25 | 29.44695 | 33.23289 | 32377 ft | 390 kts | 284° |
| 2026-05-05 13:25 | 29.45528 | 33.20330 | 31899 ft | 392 kts | 285° |
| 2026-05-05 13:26 | 29.46367 | 33.17352 | 31438 ft | 393 kts | 285° |
| 2026-05-05 13:26 | 29.47206 | 33.14370 | 30974 ft | 391 kts | 285° |
| 2026-05-05 13:26 | 29.48029 | 33.11444 | 30535 ft | 386 kts | 285° |
| 2026-05-05 13:26 | 29.48848 | 33.08532 | 30108 ft | 381 kts | 285° |
| 2026-05-05 13:27 | 29.49656 | 33.05650 | 29607 ft | 378 kts | 285° |
| 2026-05-05 13:27 | 29.50459 | 33.02786 | 29121 ft | 375 kts | 285° |
| 2026-05-05 13:27 | 29.51251 | 32.99958 | 28642 ft | 369 kts | 285° |
| 2026-05-05 13:27 | 29.52029 | 32.97181 | 28157 ft | 362 kts | 285° |
| 2026-05-05 13:28 | 29.52792 | 32.94452 | 27689 ft | 353 kts | 285° |
| 2026-05-05 13:28 | 29.53522 | 32.91844 | 27290 ft | 335 kts | 285° |
| 2026-05-05 13:28 | 29.54219 | 32.89355 | 26903 ft | 319 kts | 285° |
| 2026-05-05 13:28 | 29.54882 | 32.86984 | 26528 ft | 305 kts | 285° |
| 2026-05-05 13:29 | 29.55508 | 32.84736 | 26180 ft | 292 kts | 285° |
| 2026-05-05 13:29 | 29.56116 | 32.82550 | 25885 ft | 283 kts | 285° |
| 2026-05-05 13:29 | 29.56709 | 32.80409 | 25594 ft | 280 kts | 285° |
| 2026-05-05 13:29 | 29.57297 | 32.78282 | 25308 ft | 279 kts | 285° |
| 2026-05-05 13:30 | 29.57885 | 32.76155 | 25014 ft | 279 kts | 285° |
| 2026-05-05 13:30 | 29.58472 | 32.74035 | 24750 ft | 277 kts | 285° |
| 2026-05-05 13:30 | 29.59052 | 32.71938 | 24484 ft | 275 kts | 285° |
| 2026-05-05 13:30 | 29.59632 | 32.69848 | 24196 ft | 273 kts | 285° |
| 2026-05-05 13:31 | 29.60177 | 32.67770 | 23930 ft | 271 kts | 284° |
| 2026-05-05 13:31 | 29.60677 | 32.65690 | 23659 ft | 269 kts | 283° |
| 2026-05-05 13:31 | 29.61144 | 32.63651 | 23346 ft | 268 kts | 283° |
| 2026-05-05 13:31 | 29.61607 | 32.61578 | 23030 ft | 267 kts | 283° |
| 2026-05-05 13:32 | 29.62067 | 32.59510 | 22716 ft | 266 kts | 283° |
| 2026-05-05 13:32 | 29.62528 | 32.57443 | 22411 ft | 266 kts | 283° |
| 2026-05-05 13:32 | 29.62991 | 32.55377 | 22094 ft | 266 kts | 283° |
| 2026-05-05 13:32 | 29.63455 | 32.53319 | 21789 ft | 266 kts | 283° |
| 2026-05-05 13:33 | 29.63920 | 32.51260 | 21483 ft | 265 kts | 283° |
| 2026-05-05 13:33 | 29.64384 | 32.49209 | 21186 ft | 265 kts | 283° |
| 2026-05-05 13:33 | 29.64850 | 32.47154 | 20879 ft | 265 kts | 284° |
| 2026-05-05 13:33 | 29.65313 | 32.45106 | 20594 ft | 265 kts | 284° |
| 2026-05-05 13:34 | 29.65776 | 32.43058 | 20315 ft | 264 kts | 284° |
| 2026-05-05 13:34 | 29.66237 | 32.41014 | 20018 ft | 264 kts | 284° |
| 2026-05-05 13:34 | 29.66693 | 32.38993 | 19742 ft | 264 kts | 284° |
| 2026-05-05 13:34 | 29.67154 | 32.36949 | 19457 ft | 264 kts | 284° |
| 2026-05-05 13:35 | 29.67614 | 32.34906 | 19177 ft | 264 kts | 284° |
| 2026-05-05 13:35 | 29.68073 | 32.32864 | 18899 ft | 263 kts | 284° |
| 2026-05-05 13:35 | 29.68533 | 32.30820 | 18631 ft | 263 kts | 284° |
| 2026-05-05 13:35 | 29.68991 | 32.28783 | 18366 ft | 263 kts | 284° |
| 2026-05-05 13:36 | 29.69439 | 32.26743 | 18046 ft | 263 kts | 281° |
| 2026-05-05 13:36 | 29.69611 | 32.24654 | 17733 ft | 262 kts | 277° |
| 2026-05-05 13:36 | 29.69926 | 32.22596 | 17423 ft | 261 kts | 284° |
| 2026-05-05 13:36 | 29.70375 | 32.20564 | 17117 ft | 261 kts | 284° |
| 2026-05-05 13:37 | 29.70818 | 32.18564 | 16800 ft | 260 kts | 284° |
| 2026-05-05 13:37 | 29.71274 | 32.16552 | 16523 ft | 260 kts | 285° |
| 2026-05-05 13:37 | 29.71738 | 32.14549 | 16243 ft | 259 kts | 285° |
| 2026-05-05 13:37 | 29.72209 | 32.12552 | 15988 ft | 258 kts | 285° |
| 2026-05-05 13:38 | 29.72685 | 32.10553 | 15736 ft | 258 kts | 285° |
| 2026-05-05 13:38 | 29.73160 | 32.08566 | 15503 ft | 257 kts | 285° |
| 2026-05-05 13:38 | 29.73635 | 32.06584 | 15263 ft | 257 kts | 285° |
| 2026-05-05 13:38 | 29.74111 | 32.04599 | 15015 ft | 257 kts | 285° |
| 2026-05-05 13:39 | 29.74577 | 32.02650 | 14785 ft | 256 kts | 285° |
| 2026-05-05 13:39 | 29.75048 | 32.00674 | 14541 ft | 256 kts | 285° |
| 2026-05-05 13:39 | 29.75520 | 31.98693 | 14229 ft | 255 kts | 285° |
| 2026-05-05 13:39 | 29.75988 | 31.96725 | 13918 ft | 255 kts | 285° |
| 2026-05-05 13:40 | 29.76448 | 31.94792 | 13605 ft | 267 kts | 285° |
| 2026-05-05 13:40 | 29.76947 | 31.92694 | 13265 ft | 276 kts | 285° |
| 2026-05-05 13:40 | 29.77456 | 31.90549 | 12939 ft | 278 kts | 285° |
| 2026-05-05 13:40 | 29.78000 | 31.88413 | 12602 ft | 277 kts | 290° |
| 2026-05-05 13:41 | 29.78814 | 31.86403 | 12288 ft | 277 kts | 299° |
| 2026-05-05 13:41 | 29.79828 | 31.84515 | 11966 ft | 277 kts | 302° |
| 2026-05-05 13:41 | 29.80735 | 31.82564 | 11565 ft | 277 kts | 288° |
| 2026-05-05 13:41 | 29.81058 | 31.80484 | 11119 ft | 278 kts | 277° |
| 2026-05-05 13:42 | 29.81185 | 31.78288 | 10639 ft | 278 kts | 275° |
| 2026-05-05 13:42 | 29.81286 | 31.76064 | 10320 ft | 278 kts | 275° |
| 2026-05-05 13:42 | 29.81385 | 31.73841 | 10083 ft | 278 kts | 275° |
| 2026-05-05 13:42 | 29.81315 | 31.71611 | 9839 ft | 281 kts | 262° |
| 2026-05-05 13:43 | 29.80819 | 31.69430 | 9563 ft | 282 kts | 255° |
| 2026-05-05 13:43 | 29.80219 | 31.67278 | 9296 ft | 282 kts | 255° |
| 2026-05-05 13:43 | 29.79609 | 31.65120 | 9035 ft | 283 kts | 255° |
| 2026-05-05 13:43 | 29.79003 | 31.62972 | 8779 ft | 282 kts | 255° |
| 2026-05-05 13:44 | 29.78395 | 31.60836 | 8515 ft | 280 kts | 254° |
| 2026-05-05 13:44 | 29.77792 | 31.58706 | 8321 ft | 279 kts | 255° |
| 2026-05-05 13:44 | 29.77191 | 31.56611 | 8111 ft | 278 kts | 255° |
| 2026-05-05 13:44 | 29.76586 | 31.54498 | 7916 ft | 277 kts | 254° |
| 2026-05-05 13:45 | 29.75988 | 31.52381 | 7738 ft | 277 kts | 255° |
| 2026-05-05 13:45 | 29.75394 | 31.50272 | 7587 ft | 277 kts | 255° |
| 2026-05-05 13:45 | 29.74808 | 31.48188 | 7446 ft | 277 kts | 255° |
| 2026-05-05 13:45 | 29.74202 | 31.46057 | 7297 ft | 276 kts | 255° |
| 2026-05-05 13:46 | 29.73612 | 31.43999 | 7132 ft | 265 kts | 254° |
| 2026-05-05 13:46 | 29.73048 | 31.42051 | 6989 ft | 255 kts | 255° |
| 2026-05-05 13:46 | 29.72531 | 31.40140 | 6838 ft | 244 kts | 263° |
| 2026-05-05 13:46 | 29.72670 | 31.38275 | 6684 ft | 229 kts | 294° |
| 2026-05-05 13:47 | 29.73592 | 31.36867 | 6545 ft | 218 kts | 323° |
| 2026-05-05 13:47 | 29.74876 | 31.35996 | 6349 ft | 213 kts | 333° |
| 2026-05-05 13:47 | 29.76204 | 31.35259 | 6093 ft | 211 kts | 334° |
| 2026-05-05 13:47 | 29.77534 | 31.34547 | 5873 ft | 210 kts | 335° |
| 2026-05-05 13:48 | 29.78843 | 31.33849 | 5658 ft | 204 kts | 335° |
| 2026-05-05 13:48 | 29.80125 | 31.33162 | 5459 ft | 203 kts | 334° |
| 2026-05-05 13:48 | 29.81412 | 31.32474 | 5226 ft | 204 kts | 334° |
| 2026-05-05 13:48 | 29.82692 | 31.31796 | 5032 ft | 205 kts | 334° |
| 2026-05-05 13:49 | 29.83991 | 31.31111 | 4845 ft | 205 kts | 335° |
| 2026-05-05 13:49 | 29.85278 | 31.30435 | 4644 ft | 202 kts | 334° |
| 2026-05-05 13:49 | 29.86559 | 31.29774 | 4493 ft | 201 kts | 335° |
| 2026-05-05 13:49 | 29.87833 | 31.29121 | 4328 ft | 199 kts | 335° |
| 2026-05-05 13:50 | 29.89099 | 31.28474 | 4175 ft | 198 kts | 335° |
| 2026-05-05 13:50 | 29.90357 | 31.27827 | 4025 ft | 198 kts | 335° |
| 2026-05-05 13:50 | 29.91608 | 31.27203 | 3878 ft | 199 kts | 339° |
| 2026-05-05 13:50 | 29.92987 | 31.27130 | 3740 ft | 202 kts | 7° |
| 2026-05-05 13:51 | 29.94355 | 31.27563 | 3568 ft | 206 kts | 14° |
| 2026-05-05 13:51 | 29.95720 | 31.28076 | 3430 ft | 206 kts | 14° |
| 2026-05-05 13:51 | 29.97075 | 31.28610 | 3278 ft | 205 kts | 15° |
| 2026-05-05 13:51 | 29.98423 | 31.29135 | 3136 ft | 204 kts | 15° |
| 2026-05-05 13:52 | 29.99744 | 31.29662 | 2974 ft | 195 kts | 21° |
| 2026-05-05 13:52 | 30.00869 | 31.30483 | 2834 ft | 186 kts | 34° |
| 2026-05-05 13:52 | 30.01751 | 31.31472 | 2780 ft | 167 kts | 43° |
| 2026-05-05 13:52 | 30.02483 | 31.32385 | 2771 ft | 143 kts | 41° |
| 2026-05-05 13:53 | 30.02916 | 31.32933 | 2689 ft | 136 kts | 42° |
| 2026-05-05 13:53 | 30.03736 | 31.34010 | 2460 ft | 134 kts | 43° |
| 2026-05-05 13:53 | 30.04142 | 31.34544 | 2334 ft | 134 kts | 43° |
| 2026-05-05 13:53 | 30.04959 | 31.35618 | 2086 ft | 133 kts | 43° |
| 2026-05-05 13:54 | 30.05364 | 31.36152 | 1980 ft | 133 kts | 43° |
| 2026-05-05 13:54 | 30.05973 | 31.36960 | 1795 ft | 133 kts | 43° |
| 2026-05-05 13:54 | 30.06526 | 31.37689 | 1600 ft | 132 kts | 43° |
| 2026-05-05 13:54 | 30.07133 | 31.38496 | 1306 ft | 133 kts | 44° |
| 2026-05-05 13:55 | 30.07739 | 31.39298 | 1011 ft | 131 kts | 40° |
| 2026-05-05 13:55 | 30.08338 | 31.40086 | 800 ft | 130 kts | 41° |
| 2026-05-05 13:55 | 30.08938 | 31.40870 | 646 ft | 130 kts | 45° |
| 2026-05-05 13:55 | 30.09529 | 31.41662 | 471 ft | 130 kts | 44° |
| 2026-05-05 13:56 | 30.10119 | 31.42448 | 382 ft | 123 kts | 45° |
| 2026-05-05 13:56 | 30.10599 | 31.43082 | 375 ft | 88 kts | 48° |
| 2026-05-05 13:56 | 30.10833 | 31.43387 | 379 ft | 37 kts | 43° |
| 2026-05-05 13:56 | 30.11045 | 31.43540 | 378 ft | 30 kts | 26° |
| 2026-05-05 13:57 | 30.11154 | 31.43595 | 378 ft | 14 kts | 23° |
| 2026-05-05 13:57 | 30.11229 | 31.43570 | 378 ft | 12 kts | 320° |
| 2026-05-05 13:57 | 30.11252 | 31.43489 | 378 ft | 11 kts | 243° |
| 2026-05-05 13:57 | 30.11255 | 31.43415 | 378 ft | 9 kts | 307° |
| 2026-05-05 13:58 | 30.11323 | 31.43338 | 378 ft | 15 kts | 320° |
| 2026-05-05 13:58 | 30.11410 | 31.43254 | 378 ft | 18 kts | 320° |
| 2026-05-05 13:58 | 30.11510 | 31.43157 | 378 ft | 20 kts | 320° |
| 2026-05-05 13:58 | 30.11617 | 31.43048 | 378 ft | 22 kts | 317° |
| 2026-05-05 13:59 | 30.11864 | 31.42805 | 378 ft | 25 kts | 319° |
| 2026-05-05 13:59 | 30.11931 | 31.42737 | 378 ft | 12 kts | 320° |
| 2026-05-05 14:00 | 30.12090 | 31.42581 | 376 ft | 18 kts | 319° |
| 2026-05-05 14:00 | 30.12159 | 31.42511 | 378 ft | 0 kts | 319° |
| 2026-05-05 14:00 | 30.12172 | 31.42498 | 378 ft | 6 kts | 319° |
| 2026-05-05 14:01 | 30.12212 | 31.42443 | 378 ft | 11 kts | 286° |
| 2026-05-05 14:01 | 30.12171 | 31.42358 | 378 ft | 16 kts | 227° |
| 2026-05-05 14:01 | 30.12083 | 31.42246 | 378 ft | 22 kts | 228° |
| 2026-05-05 14:01 | 30.11975 | 31.42098 | 378 ft | 26 kts | 230° |
| 2026-05-05 14:02 | 30.11849 | 31.41927 | 378 ft | 29 kts | 230° |
| 2026-05-05 14:02 | 30.11712 | 31.41748 | 378 ft | 30 kts | 228° |
| 2026-05-05 14:02 | 30.11588 | 31.41581 | 378 ft | 32 kts | 229° |
| 2026-05-05 14:02 | 30.11441 | 31.41388 | 378 ft | 27 kts | 229° |
| 2026-05-05 14:03 | 30.11323 | 31.41232 | 378 ft | 27 kts | 230° |
| 2026-05-05 14:03 | 30.11197 | 31.41067 | 378 ft | 27 kts | 229° |
| 2026-05-05 14:03 | 30.11074 | 31.40898 | 378 ft | 25 kts | 234° |
| 2026-05-05 14:03 | 30.11090 | 31.40779 | 378 ft | 8 kts | 282° |
| 2026-05-05 14:04 | 30.11062 | 31.40722 | 378 ft | 10 kts | 230° |
| 2026-05-05 14:04 | 30.11010 | 31.40656 | 378 ft | 13 kts | 228° |
| 2026-05-05 14:04 | 30.10945 | 31.40571 | 378 ft | 16 kts | 228° |
| 2026-05-05 14:04 | 30.10918 | 31.40460 | 378 ft | 15 kts | 290° |
| 2026-05-05 14:05 | 30.10954 | 31.40347 | 378 ft | 15 kts | 289° |
| 2026-05-05 14:05 | 30.10997 | 31.40297 | 378 ft | 6 kts | 13° |
| 2026-05-05 14:05 | 30.11040 | 31.40310 | 378 ft | 7 kts | 16° |
| 2026-05-05 14:05 | 30.11056 | 31.40316 | 378 ft | 0 kts | 18° |